Time,TemperatureF,DewpointF,PressureIn,WindDirection,WindDirectionDegrees,WindSpeedMPH,WindSpeedGustMPH,Humidity,HourlyPrecipIn,Conditions,Clouds,dailyrainin,SoftwareType,DateUTC
2014-03-27 00:04:00,38.3,37.4,29.80,North,0,0.0,0.7,95,0.00,,,0.00,fowsr,2014-03-26 23:04:00,
2014-03-27 00:09:00,38.3,37.4,29.80,NE,45,0.0,0.7,95,0.00,,,0.00,fowsr,2014-03-26 23:09:00,
2014-03-27 00:14:00,38.3,37.4,29.80,NW,315,0.0,0.7,95,0.00,,,0.00,fowsr,2014-03-26 23:14:00,
2014-03-27 00:19:00,38.1,37.2,29.80,East,90,0.0,0.7,95,0.00,,,0.00,fowsr,2014-03-26 23:19:00,
2014-03-27 00:24:00,38.1,37.4,29.80,North,0,0.0,0.7,96,0.00,,,0.00,fowsr,2014-03-26 23:24:00,
2014-03-27 00:29:00,38.3,37.5,29.80,East,90,0.0,0.7,96,0.00,,,0.00,fowsr,2014-03-26 23:29:00,
2014-03-27 00:34:00,38.5,37.7,29.80,SE,135,0.0,0.0,96,0.00,,,0.00,fowsr,2014-03-26 23:34:00,
2014-03-27 00:39:00,38.3,37.4,29.80,NW,315,0.0,0.7,95,0.00,,,0.00,fowsr,2014-03-26 23:39:00,
2014-03-27 00:44:00,38.1,37.4,29.79,NE,45,0.0,0.0,96,0.00,,,0.00,fowsr,2014-03-26 23:44:00,
2014-03-27 00:49:00,38.1,37.4,29.80,NW,315,0.0,0.7,96,0.00,,,0.00,fowsr,2014-03-26 23:49:00,
2014-03-27 00:54:00,38.1,37.4,29.79,SE,135,0.0,0.0,96,0.00,,,0.00,fowsr,2014-03-26 23:54:00,
2014-03-27 00:59:00,38.3,37.5,29.79,West,270,0.0,0.7,96,0.00,,,0.00,fowsr,2014-03-26 23:59:00,
2014-03-27 01:04:00,38.3,37.5,29.78,NE,45,0.0,1.6,96,0.00,,,0.00,fowsr,2014-03-27 00:04:00,
2014-03-27 01:09:00,38.8,38.3,29.79,NW,315,0.0,0.7,97,0.00,,,0.00,fowsr,2014-03-27 00:09:00,
2014-03-27 01:14:00,38.8,38.3,29.78,SW,225,0.0,1.6,97,0.00,,,0.00,fowsr,2014-03-27 00:14:00,
2014-03-27 01:19:00,38.8,38.3,29.78,NE,45,0.0,0.7,97,0.00,,,0.00,fowsr,2014-03-27 00:19:00,
2014-03-27 01:24:00,38.8,38.3,29.79,North,0,0.0,0.7,97,0.00,,,0.00,fowsr,2014-03-27 00:24:00,
2014-03-27 01:29:00,38.8,38.1,29.78,North,0,0.7,2.2,96,0.00,,,0.00,fowsr,2014-03-27 00:29:00,
2014-03-27 01:34:00,38.8,38.1,29.78,NE,45,0.0,0.7,96,0.00,,,0.00,fowsr,2014-03-27 00:34:00,
2014-03-27 01:39:00,39.0,38.3,29.78,North,0,0.0,0.7,96,0.00,,,0.00,fowsr,2014-03-27 00:39:00,
2014-03-27 01:44:00,39.0,38.3,29.77,NE,45,0.0,0.7,96,0.00,,,0.00,fowsr,2014-03-27 00:44:00,
2014-03-27 01:49:00,38.8,38.1,29.77,NE,45,0.0,0.0,96,0.00,,,0.00,fowsr,2014-03-27 00:49:00,
2014-03-27 01:54:00,38.8,38.1,29.77,NE,45,0.0,0.7,96,0.00,,,0.00,fowsr,2014-03-27 00:54:00,
2014-03-27 01:59:00,38.8,38.1,29.77,SW,225,0.0,1.6,96,0.00,,,0.00,fowsr,2014-03-27 00:59:00,
2014-03-27 02:04:00,38.8,38.3,29.77,NW,315,0.0,1.6,97,0.00,,,0.00,fowsr,2014-03-27 01:04:00,
2014-03-27 02:09:00,39.0,38.5,29.78,NW,315,0.0,1.6,97,0.00,,,0.00,fowsr,2014-03-27 01:09:00,
2014-03-27 02:14:00,39.0,38.5,29.77,West,270,0.0,1.6,97,0.00,,,0.00,fowsr,2014-03-27 01:14:00,
2014-03-27 02:19:00,39.2,38.6,29.77,West,270,0.0,1.6,97,0.00,,,0.00,fowsr,2014-03-27 01:19:00,
2014-03-27 02:24:00,39.2,38.6,29.77,South,180,0.0,1.6,97,0.00,,,0.00,fowsr,2014-03-27 01:24:00,
2014-03-27 02:29:00,39.2,38.6,29.77,NW,315,0.0,0.7,97,0.00,,,0.00,fowsr,2014-03-27 01:29:00,
2014-03-27 02:34:00,39.2,38.8,29.77,NW,315,0.0,2.2,98,0.00,,,0.00,fowsr,2014-03-27 01:34:00,
2014-03-27 02:39:00,39.2,38.8,29.77,North,0,0.0,2.2,98,0.00,,,0.00,fowsr,2014-03-27 01:39:00,
2014-03-27 02:44:00,39.2,38.8,29.77,NW,315,0.0,1.6,98,0.00,,,0.00,fowsr,2014-03-27 01:44:00,
2014-03-27 02:49:00,39.2,38.8,29.77,NE,45,0.0,0.7,98,0.00,,,0.00,fowsr,2014-03-27 01:49:00,
2014-03-27 02:54:00,39.0,38.6,29.77,East,90,0.0,0.7,98,0.00,,,0.00,fowsr,2014-03-27 01:54:00,
2014-03-27 02:59:00,38.8,38.5,29.77,West,270,0.0,1.6,98,0.00,,,0.00,fowsr,2014-03-27 01:59:00,
2014-03-27 03:04:00,38.8,38.5,29.77,North,0,0.0,0.7,98,0.00,,,0.00,fowsr,2014-03-27 02:04:00,
2014-03-27 03:09:00,38.8,38.5,29.77,East,90,0.0,1.6,98,0.00,,,0.00,fowsr,2014-03-27 02:09:00,
2014-03-27 03:14:00,38.8,38.5,29.77,NE,45,0.0,1.6,98,0.00,,,0.00,fowsr,2014-03-27 02:14:00,
2014-03-27 03:19:00,38.7,38.3,29.77,East,90,0.0,1.6,98,0.00,,,0.00,fowsr,2014-03-27 02:19:00,
2014-03-27 03:24:00,38.8,38.7,29.76,NE,45,0.0,0.7,99,0.00,,,0.00,fowsr,2014-03-27 02:24:00,
2014-03-27 03:29:00,38.8,38.5,29.76,NE,45,0.0,0.7,98,0.00,,,0.00,fowsr,2014-03-27 02:29:00,
2014-03-27 03:34:00,38.7,38.3,29.76,SSE,157,0.0,1.6,98,0.00,,,0.00,fowsr,2014-03-27 02:34:00,
2014-03-27 03:39:00,38.7,38.3,29.76,NE,45,0.0,1.6,98,0.00,,,0.00,fowsr,2014-03-27 02:39:00,
2014-03-27 03:44:00,39.0,38.6,29.75,NE,45,0.0,1.6,98,0.00,,,0.00,fowsr,2014-03-27 02:44:00,
2014-03-27 03:49:00,39.2,38.8,29.75,SE,135,0.0,2.2,98,0.00,,,0.00,fowsr,2014-03-27 02:49:00,
2014-03-27 03:54:00,39.2,38.8,29.75,SSE,157,0.0,2.2,98,0.00,,,0.00,fowsr,2014-03-27 02:54:00,
2014-03-27 03:59:00,39.4,39.0,29.75,NE,45,0.0,0.7,98,0.00,,,0.00,fowsr,2014-03-27 02:59:00,
2014-03-27 04:04:00,39.4,38.8,29.75,NW,315,0.0,0.7,97,0.00,,,0.00,fowsr,2014-03-27 03:04:00,
2014-03-27 04:09:00,39.6,39.0,29.75,West,270,0.0,0.7,97,0.00,,,0.00,fowsr,2014-03-27 03:09:00,
2014-03-27 04:15:00,39.4,38.6,29.75,South,180,0.0,0.7,96,0.00,,,0.00,fowsr,2014-03-27 03:15:00,
2014-03-27 04:20:00,39.4,38.6,29.75,SSE,157,0.0,0.7,96,0.00,,,0.00,fowsr,2014-03-27 03:20:00,
2014-03-27 04:25:00,39.2,38.4,29.75,NE,45,0.7,3.1,96,0.00,,,0.00,fowsr,2014-03-27 03:25:00,
2014-03-27 04:34:00,38.8,38.1,29.75,NE,45,0.0,0.7,96,0.00,,,0.00,fowsr,2014-03-27 03:34:00,
2014-03-27 04:39:00,38.7,38.1,29.75,NE,45,0.0,0.7,97,0.00,,,0.00,fowsr,2014-03-27 03:39:00,
2014-03-27 04:44:00,38.7,38.3,29.75,NE,45,0.0,1.6,98,0.00,,,0.00,fowsr,2014-03-27 03:44:00,
2014-03-27 04:50:00,38.7,38.3,29.75,NW,315,0.0,0.7,98,0.00,,,0.00,fowsr,2014-03-27 03:50:00,
2014-03-27 04:55:00,38.5,38.1,29.75,East,90,0.0,0.7,98,0.00,,,0.00,fowsr,2014-03-27 03:55:00,
2014-03-27 05:00:00,38.3,37.9,29.75,NE,45,0.0,0.7,98,0.00,,,0.00,fowsr,2014-03-27 04:00:00,
2014-03-27 05:05:00,38.3,37.9,29.75,NE,45,0.0,0.7,98,0.00,,,0.00,fowsr,2014-03-27 04:05:00,
2014-03-27 05:10:00,38.3,38.1,29.74,NW,315,0.0,0.7,99,0.00,,,0.00,fowsr,2014-03-27 04:10:00,
2014-03-27 05:15:00,38.3,38.1,29.75,West,270,0.0,1.6,99,0.00,,,0.00,fowsr,2014-03-27 04:15:00,
2014-03-27 05:20:00,38.5,38.3,29.75,North,0,0.0,0.0,99,0.00,,,0.00,fowsr,2014-03-27 04:20:00,
2014-03-27 05:25:00,38.5,38.3,29.75,NE,45,0.0,0.0,99,0.00,,,0.00,fowsr,2014-03-27 04:25:00,
2014-03-27 05:34:00,38.7,38.5,29.74,SE,135,0.0,0.7,99,0.00,,,0.00,fowsr,2014-03-27 04:34:00,
2014-03-27 05:39:00,39.0,38.8,29.74,SE,135,0.0,2.2,99,0.00,,,0.00,fowsr,2014-03-27 04:39:00,
2014-03-27 05:44:00,39.2,39.0,29.74,NE,45,0.0,1.6,99,0.00,,,0.00,fowsr,2014-03-27 04:44:00,
2014-03-27 05:49:00,39.4,39.2,29.74,North,0,0.0,1.6,99,0.00,,,0.00,fowsr,2014-03-27 04:49:00,
2014-03-27 05:54:00,39.6,39.4,29.75,NE,45,0.0,1.6,99,0.00,,,0.00,fowsr,2014-03-27 04:54:00,
2014-03-27 05:59:00,39.6,39.4,29.74,NE,45,0.0,1.6,99,0.00,,,0.00,fowsr,2014-03-27 04:59:00,
2014-03-27 06:04:00,39.6,39.4,29.74,SW,225,0.0,1.6,99,0.00,,,0.00,fowsr,2014-03-27 05:04:00,
2014-03-27 06:09:00,39.7,39.6,29.75,North,0,0.0,0.7,99,0.00,,,0.00,fowsr,2014-03-27 05:09:00,
2014-03-27 06:14:00,39.7,39.4,29.75,SE,135,0.0,1.6,98,0.00,,,0.00,fowsr,2014-03-27 05:14:00,
2014-03-27 06:19:00,39.9,39.5,29.75,East,90,0.0,1.6,98,0.00,,,0.00,fowsr,2014-03-27 05:19:00,
2014-03-27 06:24:00,39.9,39.5,29.75,North,0,0.7,1.6,98,0.00,,,0.00,fowsr,2014-03-27 05:24:00,
2014-03-27 06:29:00,40.1,39.9,29.75,NE,45,0.0,0.7,99,0.00,,,0.00,fowsr,2014-03-27 05:29:00,
2014-03-27 06:39:00,40.3,39.9,29.75,NE,45,0.0,0.7,98,0.00,,,0.00,fowsr,2014-03-27 05:39:00,
2014-03-27 06:44:00,40.1,39.7,29.75,SW,225,0.0,0.7,98,0.00,,,0.00,fowsr,2014-03-27 05:44:00,
2014-03-27 06:49:00,40.1,39.7,29.75,NE,45,0.0,0.7,98,0.00,,,0.00,fowsr,2014-03-27 05:49:00,
2014-03-27 06:54:00,39.9,39.5,29.75,North,0,0.0,1.6,98,0.00,,,0.00,fowsr,2014-03-27 05:54:00,
2014-03-27 06:59:00,39.9,39.5,29.75,NE,45,0.0,1.6,98,0.00,,,0.00,fowsr,2014-03-27 05:59:00,
2014-03-27 07:04:00,39.9,39.7,29.75,East,90,0.0,2.2,99,0.00,,,0.00,fowsr,2014-03-27 06:04:00,
2014-03-27 07:09:00,40.1,39.9,29.75,North,0,0.0,0.7,99,0.00,,,0.00,fowsr,2014-03-27 06:09:00,
2014-03-27 07:14:00,40.3,40.1,29.75,NE,45,0.0,0.7,99,0.00,,,0.00,fowsr,2014-03-27 06:14:00,
2014-03-27 07:19:00,40.5,40.3,29.75,North,0,0.0,2.2,99,0.00,,,0.00,fowsr,2014-03-27 06:19:00,
2014-03-27 07:24:00,40.8,40.6,29.75,North,0,1.6,2.2,99,0.00,,,0.00,fowsr,2014-03-27 06:24:00,
2014-03-27 07:29:00,41.2,41.0,29.76,NW,315,0.0,1.6,99,0.00,,,0.00,fowsr,2014-03-27 06:29:00,
2014-03-27 07:34:00,41.4,41.2,29.76,NW,315,0.0,1.6,99,0.00,,,0.00,fowsr,2014-03-27 06:34:00,
2014-03-27 07:39:00,41.4,41.2,29.76,East,90,0.7,3.8,99,0.00,,,0.00,fowsr,2014-03-27 06:39:00,
2014-03-27 07:44:00,41.4,41.0,29.76,North,0,0.0,0.7,98,0.00,,,0.00,fowsr,2014-03-27 06:44:00,
2014-03-27 07:50:00,41.4,41.0,29.76,NW,315,0.7,1.6,98,0.00,,,0.00,fowsr,2014-03-27 06:50:00,
2014-03-27 07:55:00,41.4,41.0,29.76,NW,315,0.0,1.6,98,0.00,,,0.00,fowsr,2014-03-27 06:55:00,
2014-03-27 08:00:00,41.5,41.2,29.76,North,0,0.7,1.6,98,0.00,,,0.00,fowsr,2014-03-27 07:00:00,
2014-03-27 08:10:00,41.9,41.5,29.76,WNW,292,0.0,1.6,98,0.00,,,0.00,fowsr,2014-03-27 07:10:00,
2014-03-27 08:15:00,42.3,41.9,29.76,SW,225,0.0,0.7,98,0.00,,,0.00,fowsr,2014-03-27 07:15:00,
2014-03-27 08:20:00,42.6,41.8,29.76,East,90,0.7,1.6,96,0.00,,,0.00,fowsr,2014-03-27 07:20:00,
2014-03-27 08:25:00,43.0,42.2,29.76,South,180,0.0,0.7,96,0.00,,,0.00,fowsr,2014-03-27 07:25:00,
2014-03-27 08:30:00,43.5,42.5,29.75,West,270,0.7,2.2,95,0.00,,,0.00,fowsr,2014-03-27 07:30:00,
2014-03-27 08:35:00,43.9,42.7,29.75,NE,45,0.0,1.6,94,0.00,,,0.00,fowsr,2014-03-27 07:35:00,
2014-03-27 08:40:00,44.1,42.7,29.75,West,270,0.0,1.6,93,0.00,,,0.00,fowsr,2014-03-27 07:40:00,
2014-03-27 08:45:00,44.1,42.7,29.75,North,0,0.7,3.1,93,0.00,,,0.00,fowsr,2014-03-27 07:45:00,
2014-03-27 08:50:00,44.4,43.0,29.75,North,0,0.0,1.6,93,0.00,,,0.00,fowsr,2014-03-27 07:50:00,
2014-03-27 08:55:00,44.8,43.0,29.75,NW,315,0.7,2.2,91,0.00,,,0.00,fowsr,2014-03-27 07:55:00,
2014-03-27 09:00:00,45.0,43.1,29.75,North,0,0.7,3.1,91,0.00,,,0.00,fowsr,2014-03-27 08:00:00,
2014-03-27 09:05:00,45.0,43.1,29.75,North,0,0.7,3.1,91,0.00,,,0.00,fowsr,2014-03-27 08:05:00,
2014-03-27 09:10:00,45.7,43.6,29.75,NW,315,0.7,3.1,90,0.00,,,0.00,fowsr,2014-03-27 08:10:00,
2014-03-27 09:19:00,46.2,43.1,29.75,NE,45,0.7,2.2,85,0.00,,,0.00,fowsr,2014-03-27 08:19:00,
2014-03-27 09:24:00,46.4,43.2,29.75,North,0,0.7,3.1,85,0.00,,,0.00,fowsr,2014-03-27 08:24:00,
2014-03-27 09:29:00,46.8,43.6,29.75,NW,315,0.7,3.1,85,0.00,,,0.00,fowsr,2014-03-27 08:29:00,
2014-03-27 09:34:00,46.9,43.5,29.76,North,0,0.7,1.6,84,0.00,,,0.00,fowsr,2014-03-27 08:34:00,
2014-03-27 09:39:00,47.1,43.7,29.75,SW,225,0.7,2.2,84,0.00,,,0.00,fowsr,2014-03-27 08:39:00,
2014-03-27 09:44:00,47.3,43.7,29.75,NW,315,0.7,1.6,83,0.00,,,0.00,fowsr,2014-03-27 08:44:00,
2014-03-27 09:49:00,47.3,43.4,29.75,North,0,0.0,0.7,82,0.00,,,0.00,fowsr,2014-03-27 08:49:00,
2014-03-27 09:54:00,47.8,44.2,29.75,West,270,0.0,2.2,83,0.00,,,0.00,fowsr,2014-03-27 08:54:00,
2014-03-27 09:59:00,48.4,44.5,29.75,NE,45,1.6,3.8,82,0.00,,,0.00,fowsr,2014-03-27 08:59:00,
2014-03-27 10:04:00,48.4,44.2,29.75,NW,315,0.7,3.1,81,0.00,,,0.00,fowsr,2014-03-27 09:04:00,
2014-03-27 10:09:00,48.9,44.8,29.75,NW,315,0.7,3.8,81,0.00,,,0.00,fowsr,2014-03-27 09:09:00,
2014-03-27 10:14:00,49.3,44.6,29.75,West,270,0.7,3.1,79,0.00,,,0.00,fowsr,2014-03-27 09:14:00,
2014-03-27 10:19:00,50.0,44.8,29.75,North,0,1.6,3.8,77,0.00,,,0.00,fowsr,2014-03-27 09:19:00,
2014-03-27 10:24:00,51.3,45.0,29.75,NW,315,0.7,3.1,73,0.00,,,0.00,fowsr,2014-03-27 09:24:00,
2014-03-27 10:29:00,53.1,46.2,29.75,NW,315,0.0,1.6,71,0.00,,,0.00,fowsr,2014-03-27 09:29:00,
2014-03-27 10:34:00,54.1,46.9,29.75,NW,315,0.7,3.1,70,0.00,,,0.00,fowsr,2014-03-27 09:34:00,
2014-03-27 10:39:00,54.1,46.4,29.75,East,90,0.7,2.2,68,0.00,,,0.00,fowsr,2014-03-27 09:39:00,
2014-03-27 10:44:00,53.8,45.7,29.74,NW,315,0.7,2.2,67,0.00,,,0.00,fowsr,2014-03-27 09:44:00,
2014-03-27 10:49:00,53.6,45.3,29.74,East,90,2.2,4.5,66,0.00,,,0.00,fowsr,2014-03-27 09:49:00,
2014-03-27 10:54:00,53.4,45.7,29.74,WNW,292,1.6,2.2,68,0.00,,,0.00,fowsr,2014-03-27 09:54:00,
2014-03-27 10:59:00,53.2,45.2,29.74,NW,315,1.6,3.1,67,0.00,,,0.00,fowsr,2014-03-27 09:59:00,
2014-03-27 11:04:00,53.2,45.5,29.74,SE,135,1.6,4.5,68,0.00,,,0.00,fowsr,2014-03-27 10:04:00,
2014-03-27 11:09:00,52.7,45.3,29.75,NE,45,0.7,3.1,69,0.00,,,0.00,fowsr,2014-03-27 10:09:00,
2014-03-27 11:14:00,52.7,45.6,29.74,NW,315,0.7,3.1,70,0.00,,,0.00,fowsr,2014-03-27 10:14:00,
2014-03-27 11:19:00,53.4,46.2,29.73,East,90,0.0,2.2,70,0.00,,,0.00,fowsr,2014-03-27 10:19:00,
2014-03-27 11:24:00,53.8,46.0,29.73,North,0,0.7,3.1,68,0.00,,,0.00,fowsr,2014-03-27 10:24:00,
2014-03-27 11:29:00,53.8,45.4,29.73,NE,45,0.7,3.1,66,0.00,,,0.00,fowsr,2014-03-27 10:29:00,
2014-03-27 11:34:00,54.1,47.5,29.73,SE,135,0.7,3.1,72,0.00,,,0.00,fowsr,2014-03-27 10:34:00,
2014-03-27 11:39:00,54.9,47.0,29.73,NE,45,0.7,2.2,68,0.00,,,0.00,fowsr,2014-03-27 10:39:00,
2014-03-27 11:44:00,54.7,46.6,29.74,NW,315,0.7,2.2,67,0.00,,,0.00,fowsr,2014-03-27 10:44:00,
2014-03-27 11:49:00,55.0,47.5,29.73,SW,225,0.7,1.6,69,0.00,,,0.00,fowsr,2014-03-27 10:49:00,
2014-03-27 11:54:00,55.6,47.4,29.73,West,270,0.7,2.2,67,0.00,,,0.00,fowsr,2014-03-27 10:54:00,
2014-03-27 11:59:00,55.4,47.0,29.73,NE,45,0.7,3.1,66,0.00,,,0.00,fowsr,2014-03-27 10:59:00,
2014-03-27 12:04:00,55.4,47.0,29.73,NW,315,1.6,3.1,66,0.00,,,0.00,fowsr,2014-03-27 11:04:00,
2014-03-27 12:09:00,54.1,46.1,29.73,East,90,1.6,3.1,67,0.00,,,0.00,fowsr,2014-03-27 11:09:00,
2014-03-27 12:14:00,53.6,45.6,29.73,SE,135,0.0,2.2,67,0.00,,,0.00,fowsr,2014-03-27 11:14:00,
2014-03-27 12:19:00,54.0,47.0,29.72,NW,315,0.7,3.1,71,0.00,,,0.00,fowsr,2014-03-27 11:19:00,
2014-03-27 12:24:00,54.3,46.5,29.72,NW,315,0.7,3.1,68,0.00,,,0.00,fowsr,2014-03-27 11:24:00,
2014-03-27 12:30:00,54.5,46.7,29.72,NW,315,0.7,2.2,68,0.00,,,0.00,fowsr,2014-03-27 11:30:00,
2014-03-27 12:35:00,54.5,46.4,29.73,NW,315,0.7,2.2,67,0.00,,,0.00,fowsr,2014-03-27 11:35:00,
2014-03-27 12:40:00,54.5,46.4,29.72,ENE,67,1.6,3.1,67,0.00,,,0.00,fowsr,2014-03-27 11:40:00,
2014-03-27 12:45:00,54.5,46.4,29.72,NE,45,0.7,3.1,67,0.00,,,0.00,fowsr,2014-03-27 11:45:00,
2014-03-27 12:54:00,54.7,46.6,29.72,WNW,292,0.7,3.8,67,0.00,,,0.00,fowsr,2014-03-27 11:54:00,
2014-03-27 12:59:00,55.0,46.9,29.72,NE,45,0.7,3.1,67,0.00,,,0.00,fowsr,2014-03-27 11:59:00,
2014-03-27 13:04:00,55.0,46.9,29.72,SW,225,0.7,3.1,67,0.00,,,0.00,fowsr,2014-03-27 12:04:00,
2014-03-27 13:09:00,54.9,46.1,29.71,East,90,0.7,1.6,65,0.00,,,0.00,fowsr,2014-03-27 12:09:00,
2014-03-27 13:14:00,55.4,47.3,29.71,NW,315,0.7,2.2,67,0.00,,,0.00,fowsr,2014-03-27 12:14:00,
2014-03-27 13:19:00,55.6,46.5,29.71,NE,45,1.6,3.8,64,0.00,,,0.00,fowsr,2014-03-27 12:19:00,
2014-03-27 13:24:00,55.6,46.5,29.71,South,180,0.7,2.2,64,0.00,,,0.00,fowsr,2014-03-27 12:24:00,
2014-03-27 13:29:00,55.4,46.7,29.71,SW,225,0.7,2.2,65,0.00,,,0.00,fowsr,2014-03-27 12:29:00,
2014-03-27 13:34:00,55.8,47.9,29.71,West,270,0.7,2.2,68,0.00,,,0.00,fowsr,2014-03-27 12:34:00,
2014-03-27 13:39:00,56.1,47.0,29.71,NW,315,0.7,3.1,64,0.00,,,0.00,fowsr,2014-03-27 12:39:00,
2014-03-27 13:44:00,56.3,47.8,29.71,NW,315,0.7,2.2,66,0.00,,,0.00,fowsr,2014-03-27 12:44:00,
2014-03-27 13:49:00,56.1,46.7,29.70,WNW,292,2.2,5.4,63,0.00,,,0.00,fowsr,2014-03-27 12:49:00,
2014-03-27 13:54:00,56.1,46.7,29.70,ENE,67,1.6,3.1,63,0.00,,,0.00,fowsr,2014-03-27 12:54:00,
2014-03-27 13:59:00,56.3,46.6,29.70,East,90,0.7,3.1,62,0.00,,,0.00,fowsr,2014-03-27 12:59:00,
2014-03-27 14:04:00,56.3,46.6,29.70,NW,315,0.7,3.1,62,0.00,,,0.00,fowsr,2014-03-27 13:04:00,
2014-03-27 14:09:00,57.2,47.4,29.69,West,270,1.6,3.8,62,0.00,,,0.00,fowsr,2014-03-27 13:09:00,
2014-03-27 14:14:00,57.0,46.6,29.70,NE,45,0.7,2.2,60,0.00,,,0.00,fowsr,2014-03-27 13:14:00,
2014-03-27 14:19:00,56.8,46.8,29.70,NW,315,1.6,3.1,61,0.00,,,0.00,fowsr,2014-03-27 13:19:00,
2014-03-27 14:24:00,56.7,45.9,29.69,WNW,292,1.6,3.1,59,0.00,,,0.00,fowsr,2014-03-27 13:24:00,
2014-03-27 14:29:00,57.0,46.3,29.69,NE,45,1.6,3.1,59,0.00,,,0.00,fowsr,2014-03-27 13:29:00,
2014-03-27 14:34:00,57.2,46.4,29.69,NE,45,1.6,3.8,59,0.00,,,0.00,fowsr,2014-03-27 13:34:00,
2014-03-27 14:39:00,57.4,46.9,29.69,West,270,0.7,3.1,60,0.00,,,0.00,fowsr,2014-03-27 13:39:00,
2014-03-27 14:44:00,57.4,46.9,29.69,SW,225,1.6,5.4,60,0.00,,,0.00,fowsr,2014-03-27 13:44:00,
2014-03-27 14:49:00,57.9,46.8,29.69,NE,45,1.6,3.1,58,0.00,,,0.00,fowsr,2014-03-27 13:49:00,
2014-03-27 14:54:00,58.3,47.8,29.69,WNW,292,2.2,3.8,60,0.00,,,0.00,fowsr,2014-03-27 13:54:00,
2014-03-27 14:59:00,58.3,47.1,29.69,NW,315,1.6,5.4,58,0.00,,,0.00,fowsr,2014-03-27 13:59:00,
2014-03-27 15:04:00,58.3,47.1,29.70,West,270,0.7,3.8,58,0.00,,,0.00,fowsr,2014-03-27 14:04:00,
2014-03-27 15:09:00,57.2,46.4,29.69,North,0,0.7,2.2,59,0.00,,,0.00,fowsr,2014-03-27 14:09:00,
2014-03-27 15:14:00,56.8,46.4,29.69,West,270,0.0,2.2,60,0.00,,,0.00,fowsr,2014-03-27 14:14:00,
2014-03-27 15:19:00,56.7,46.9,29.69,NE,45,0.7,2.2,62,0.00,,,0.00,fowsr,2014-03-27 14:19:00,
2014-03-27 15:24:00,56.7,47.2,29.69,NW,315,0.7,3.1,63,0.00,,,0.00,fowsr,2014-03-27 14:24:00,
2014-03-27 15:29:00,57.2,46.8,29.69,North,0,1.6,3.8,60,0.00,,,0.00,fowsr,2014-03-27 14:29:00,
2014-03-27 15:34:00,57.4,47.3,29.69,SW,225,0.7,1.6,61,0.00,,,0.00,fowsr,2014-03-27 14:34:00,
2014-03-27 15:39:00,57.4,47.3,29.69,NW,315,0.7,2.2,61,0.00,,,0.00,fowsr,2014-03-27 14:39:00,
2014-03-27 15:44:00,57.4,46.6,29.69,NW,315,0.7,2.2,59,0.00,,,0.00,fowsr,2014-03-27 14:44:00,
2014-03-27 15:49:00,57.6,46.1,29.69,West,270,1.6,4.5,57,0.00,,,0.00,fowsr,2014-03-27 14:49:00,
2014-03-27 15:54:00,57.7,45.9,29.69,SE,135,0.7,2.2,56,0.00,,,0.00,fowsr,2014-03-27 14:54:00,
2014-03-27 15:59:00,58.1,47.3,29.68,NE,45,0.7,1.6,59,0.00,,,0.00,fowsr,2014-03-27 14:59:00,
2014-03-27 16:04:00,58.1,46.9,29.69,SE,135,1.6,4.5,58,0.00,,,0.00,fowsr,2014-03-27 15:04:00,
2014-03-27 16:09:00,57.9,45.7,29.69,SE,135,2.2,5.4,55,0.00,,,0.00,fowsr,2014-03-27 15:09:00,
2014-03-27 16:14:00,57.4,45.9,29.69,NW,315,0.7,1.6,57,0.00,,,0.00,fowsr,2014-03-27 15:14:00,
2014-03-27 16:19:00,57.6,47.1,29.69,South,180,0.0,3.1,60,0.00,,,0.00,fowsr,2014-03-27 15:19:00,
2014-03-27 16:24:00,57.9,47.1,29.68,NE,45,2.2,5.4,59,0.00,,,0.00,fowsr,2014-03-27 15:24:00,
2014-03-27 16:29:00,57.6,46.8,29.68,NW,315,0.7,2.2,59,0.00,,,0.00,fowsr,2014-03-27 15:29:00,
2014-03-27 16:34:00,57.2,47.4,29.68,West,270,0.0,1.6,62,0.00,,,0.00,fowsr,2014-03-27 15:34:00,
2014-03-27 16:39:00,57.2,47.1,29.68,East,90,0.7,3.8,61,0.00,,,0.00,fowsr,2014-03-27 15:39:00,
2014-03-27 16:44:00,57.2,46.4,29.68,SE,135,1.6,3.1,59,0.00,,,0.00,fowsr,2014-03-27 15:44:00,
2014-03-27 16:49:00,57.2,46.4,29.68,NE,45,1.6,3.8,59,0.00,,,0.00,fowsr,2014-03-27 15:49:00,
2014-03-27 16:54:00,57.0,46.3,29.68,West,270,0.7,1.6,59,0.00,,,0.00,fowsr,2014-03-27 15:54:00,
2014-03-27 16:59:00,57.2,46.4,29.68,West,270,1.6,3.1,59,0.00,,,0.00,fowsr,2014-03-27 15:59:00,
2014-03-27 17:04:00,57.4,46.6,29.68,NE,45,0.7,3.8,59,0.00,,,0.00,fowsr,2014-03-27 16:04:00,
2014-03-27 17:09:00,57.7,46.9,29.68,ENE,67,0.0,2.2,59,0.00,,,0.00,fowsr,2014-03-27 16:09:00,
2014-03-27 17:14:00,57.6,46.8,29.69,SE,135,0.7,2.2,59,0.00,,,0.00,fowsr,2014-03-27 16:14:00,
2014-03-27 17:19:00,57.2,46.8,29.69,SW,225,0.0,0.7,60,0.00,,,0.00,fowsr,2014-03-27 16:19:00,
2014-03-27 17:24:00,57.0,46.9,29.69,NE,45,0.0,2.2,61,0.00,,,0.00,fowsr,2014-03-27 16:24:00,
2014-03-27 17:29:00,56.5,46.4,29.69,NW,315,0.7,2.2,61,0.00,,,0.00,fowsr,2014-03-27 16:29:00,
2014-03-27 17:34:00,56.3,46.6,29.68,NE,45,1.6,4.5,62,0.00,,,0.00,fowsr,2014-03-27 16:34:00,
2014-03-27 17:39:00,56.3,46.2,29.68,NW,315,0.0,1.6,61,0.00,,,0.00,fowsr,2014-03-27 16:39:00,
2014-03-27 17:44:00,56.1,46.4,29.68,NE,45,0.7,3.1,62,0.00,,,0.00,fowsr,2014-03-27 16:44:00,
2014-03-27 17:49:00,55.9,46.5,29.68,NE,45,0.0,0.7,63,0.00,,,0.00,fowsr,2014-03-27 16:49:00,
2014-03-27 17:54:00,55.8,46.4,29.69,North,0,0.0,1.6,63,0.00,,,0.00,fowsr,2014-03-27 16:54:00,
2014-03-27 17:59:00,55.8,46.1,29.69,SE,135,0.0,1.6,62,0.00,,,0.00,fowsr,2014-03-27 16:59:00,
2014-03-27 18:04:00,55.9,46.2,29.69,West,270,0.0,1.6,62,0.00,,,0.00,fowsr,2014-03-27 17:04:00,
2014-03-27 18:09:00,55.8,46.1,29.69,West,270,0.0,1.6,62,0.00,,,0.00,fowsr,2014-03-27 17:09:00,
2014-03-27 18:14:00,55.6,45.9,29.69,South,180,0.0,0.7,62,0.00,,,0.00,fowsr,2014-03-27 17:14:00,
2014-03-27 18:19:00,55.4,46.0,29.69,WSW,247,0.0,0.7,63,0.00,,,0.00,fowsr,2014-03-27 17:19:00,
2014-03-27 18:24:00,55.4,45.7,29.69,SW,225,0.7,1.6,62,0.00,,,0.00,fowsr,2014-03-27 17:24:00,
2014-03-27 18:29:00,55.2,45.9,29.69,East,90,0.0,0.7,63,0.00,,,0.00,fowsr,2014-03-27 17:29:00,
2014-03-27 18:34:00,55.0,45.7,29.69,SE,135,0.0,1.6,63,0.00,,,0.00,fowsr,2014-03-27 17:34:00,
2014-03-27 18:39:00,54.9,45.5,29.69,NE,45,0.0,2.2,63,0.00,,,0.00,fowsr,2014-03-27 17:39:00,
2014-03-27 18:44:00,54.7,45.4,29.69,North,0,0.7,2.2,63,0.00,,,0.00,fowsr,2014-03-27 17:44:00,
2014-03-27 18:49:00,54.5,45.2,29.69,NE,45,0.0,1.6,63,0.00,,,0.00,fowsr,2014-03-27 17:49:00,
2014-03-27 18:54:00,54.3,45.3,29.69,NW,315,0.0,1.6,64,0.00,,,0.00,fowsr,2014-03-27 17:54:00,
2014-03-27 18:59:00,54.1,45.2,29.69,WNW,292,0.0,2.2,64,0.00,,,0.00,fowsr,2014-03-27 17:59:00,
2014-03-27 19:04:00,54.0,45.0,29.69,WNW,292,0.0,1.6,64,0.00,,,0.00,fowsr,2014-03-27 18:04:00,
2014-03-27 19:09:00,53.6,45.0,29.69,SW,225,0.0,1.6,65,0.00,,,0.00,fowsr,2014-03-27 18:09:00,
2014-03-27 19:14:00,53.2,44.9,29.69,West,270,0.0,1.6,66,0.00,,,0.00,fowsr,2014-03-27 18:14:00,
2014-03-27 19:19:00,52.9,44.9,29.69,NE,45,0.0,1.6,67,0.00,,,0.00,fowsr,2014-03-27 18:19:00,
2014-03-27 19:24:00,52.5,44.8,29.69,South,180,0.0,0.7,68,0.00,,,0.00,fowsr,2014-03-27 18:24:00,
2014-03-27 19:29:00,52.3,44.6,29.69,West,270,0.0,1.6,68,0.00,,,0.00,fowsr,2014-03-27 18:29:00,
2014-03-27 19:34:00,52.2,44.5,29.69,SW,225,0.0,1.6,68,0.00,,,0.00,fowsr,2014-03-27 18:34:00,
2014-03-27 19:39:00,52.0,44.3,29.69,East,90,0.0,1.6,68,0.00,,,0.00,fowsr,2014-03-27 18:39:00,
2014-03-27 19:44:00,52.0,44.3,29.69,NW,315,0.7,3.8,68,0.00,,,0.00,fowsr,2014-03-27 18:44:00,
2014-03-27 19:49:00,52.0,44.3,29.70,NW,315,0.0,0.0,68,0.00,,,0.00,fowsr,2014-03-27 18:49:00,
2014-03-27 19:54:00,51.8,44.1,29.70,NE,45,0.0,0.7,68,0.00,,,0.00,fowsr,2014-03-27 18:54:00,
2014-03-27 19:59:00,51.8,44.1,29.70,East,90,0.0,1.6,68,0.00,,,0.00,fowsr,2014-03-27 18:59:00,
2014-03-27 20:04:00,51.6,44.0,29.69,North,0,0.0,1.6,68,0.00,,,0.00,fowsr,2014-03-27 19:04:00,
2014-03-27 20:09:00,51.6,44.2,29.70,West,270,0.7,3.1,69,0.00,,,0.00,fowsr,2014-03-27 19:09:00,
2014-03-27 20:14:00,51.6,44.0,29.70,WNW,292,0.0,2.2,68,0.00,,,0.00,fowsr,2014-03-27 19:14:00,
2014-03-27 20:19:00,51.6,44.0,29.70,NE,45,0.0,2.2,68,0.00,,,0.00,fowsr,2014-03-27 19:19:00,
2014-03-27 20:24:00,51.4,44.1,29.71,NE,45,0.7,2.2,69,0.00,,,0.00,fowsr,2014-03-27 19:24:00,
2014-03-27 20:29:00,51.1,43.7,29.71,NW,315,0.0,1.6,69,0.00,,,0.00,fowsr,2014-03-27 19:29:00,
2014-03-27 20:34:00,50.9,43.8,29.71,SW,225,0.7,2.2,70,0.00,,,0.00,fowsr,2014-03-27 19:34:00,
2014-03-27 20:39:00,50.5,43.8,29.71,East,90,0.7,2.2,71,0.00,,,0.00,fowsr,2014-03-27 19:39:00,
2014-03-27 20:44:00,50.4,43.9,29.71,NE,45,0.7,2.2,72,0.00,,,0.00,fowsr,2014-03-27 19:44:00,
2014-03-27 20:49:00,50.2,43.7,29.72,SE,135,1.6,3.8,72,0.00,,,0.00,fowsr,2014-03-27 19:49:00,
2014-03-27 20:54:00,50.2,43.7,29.71,East,90,0.7,1.6,72,0.00,,,0.00,fowsr,2014-03-27 19:54:00,
2014-03-27 20:59:00,50.2,44.0,29.72,North,0,0.0,1.6,73,0.00,,,0.00,fowsr,2014-03-27 19:59:00,
2014-03-27 21:04:00,50.2,44.0,29.72,North,0,0.0,2.2,73,0.00,,,0.00,fowsr,2014-03-27 20:04:00,
2014-03-27 21:09:00,49.8,43.9,29.72,NW,315,0.0,1.6,74,0.00,,,0.00,fowsr,2014-03-27 20:09:00,
2014-03-27 21:14:00,49.6,43.7,29.72,East,90,0.7,3.1,74,0.00,,,0.00,fowsr,2014-03-27 20:14:00,
2014-03-27 21:19:00,49.6,44.0,29.72,NE,45,0.7,3.1,75,0.00,,,0.00,fowsr,2014-03-27 20:19:00,
2014-03-27 21:24:00,49.5,43.8,29.72,SW,225,0.0,1.6,75,0.00,,,0.00,fowsr,2014-03-27 20:24:00,
2014-03-27 21:29:00,49.5,43.8,29.72,NE,45,0.0,1.6,75,0.00,,,0.00,fowsr,2014-03-27 20:29:00,
2014-03-27 21:34:00,49.3,43.6,29.73,West,270,0.7,2.2,75,0.00,,,0.00,fowsr,2014-03-27 20:34:00,
2014-03-27 21:40:00,49.3,43.6,29.73,NW,315,0.7,2.2,75,0.00,,,0.00,fowsr,2014-03-27 20:40:00,
2014-03-27 21:45:00,49.3,43.6,29.73,NE,45,0.0,1.6,75,0.00,,,0.00,fowsr,2014-03-27 20:45:00,
2014-03-27 21:50:00,49.3,43.6,29.73,NE,45,0.7,2.2,75,0.00,,,0.00,fowsr,2014-03-27 20:50:00,
2014-03-27 21:55:00,49.3,43.6,29.73,NW,315,0.7,2.2,75,0.00,,,0.00,fowsr,2014-03-27 20:55:00,
2014-03-27 22:00:00,49.5,43.5,29.73,NW,315,0.0,1.6,74,0.00,,,0.00,fowsr,2014-03-27 21:00:00,
2014-03-27 22:05:00,49.5,43.5,29.73,NW,315,0.0,1.6,74,0.00,,,0.00,fowsr,2014-03-27 21:05:00,
2014-03-27 22:10:00,49.6,43.7,29.73,NW,315,0.0,1.6,74,0.00,,,0.00,fowsr,2014-03-27 21:10:00,
2014-03-27 22:15:00,49.6,43.4,29.73,NE,45,0.0,2.2,73,0.00,,,0.00,fowsr,2014-03-27 21:15:00,
2014-03-27 22:20:00,49.6,43.4,29.73,West,270,0.7,3.8,73,0.00,,,0.00,fowsr,2014-03-27 21:20:00,
2014-03-27 22:25:00,49.6,43.4,29.74,NW,315,0.7,1.6,73,0.00,,,0.00,fowsr,2014-03-27 21:25:00,
2014-03-27 22:30:00,49.6,43.4,29.74,NW,315,0.0,3.1,73,0.00,,,0.00,fowsr,2014-03-27 21:30:00,
2014-03-27 22:35:00,49.8,43.4,29.74,NE,45,1.6,3.1,72,0.00,,,0.00,fowsr,2014-03-27 21:35:00,
2014-03-27 22:40:00,50.0,43.5,29.74,West,270,0.0,1.6,72,0.00,,,0.00,fowsr,2014-03-27 21:40:00,
2014-03-27 22:49:00,50.0,43.5,29.74,NW,315,0.7,2.2,72,0.00,,,0.00,fowsr,2014-03-27 21:49:00,
2014-03-27 22:54:00,50.0,43.5,29.74,West,270,0.0,2.2,72,0.00,,,0.00,fowsr,2014-03-27 21:54:00,
2014-03-27 22:59:00,50.0,43.3,29.74,SE,135,0.7,2.2,71,0.00,,,0.00,fowsr,2014-03-27 21:59:00,
2014-03-27 23:04:00,50.0,43.5,29.74,NE,45,0.7,2.2,72,0.00,,,0.00,fowsr,2014-03-27 22:04:00,
2014-03-27 23:09:00,49.8,43.4,29.74,NE,45,0.0,1.6,72,0.00,,,0.00,fowsr,2014-03-27 22:09:00,
2014-03-27 23:14:00,49.6,43.2,29.75,South,180,0.0,1.6,72,0.00,,,0.00,fowsr,2014-03-27 22:14:00,
2014-03-27 23:19:00,49.6,43.2,29.75,NW,315,0.0,0.7,72,0.00,,,0.00,fowsr,2014-03-27 22:19:00,
2014-03-27 23:24:00,49.5,43.3,29.75,NE,45,0.0,1.6,73,0.00,,,0.00,fowsr,2014-03-27 22:24:00,
2014-03-27 23:29:00,49.3,43.1,29.75,NW,315,0.0,2.2,73,0.00,,,0.00,fowsr,2014-03-27 22:29:00,
2014-03-27 23:34:00,49.3,43.1,29.75,NW,315,0.7,3.1,73,0.00,,,0.00,fowsr,2014-03-27 22:34:00,
2014-03-27 23:39:00,49.1,43.2,29.75,NW,315,0.7,1.6,74,0.00,,,0.00,fowsr,2014-03-27 22:39:00,
2014-03-27 23:44:00,49.1,43.2,29.75,West,270,0.0,0.7,74,0.00,,,0.00,fowsr,2014-03-27 22:44:00,
2014-03-27 23:49:00,48.9,43.0,29.75,SW,225,0.0,2.2,74,0.00,,,0.00,fowsr,2014-03-27 22:49:00,
2014-03-27 23:54:00,48.9,43.0,29.75,NE,45,0.0,0.7,74,0.00,,,0.00,fowsr,2014-03-27 22:54:00,
2014-03-27 23:59:00,48.7,43.1,29.75,NW,315,0.7,1.6,75,0.00,,,0.00,fowsr,2014-03-27 22:59:00,